Time;durP1;ratioP1;P1;durP2;ratioP2;P2;SDS_P1;SDS_P2;PMS_P1;PMS_P2;Temp;Humidity;BMP_temperature;BMP_pressure;BME280_temperature;BME280_humidity;BME280_pressure;Samples;Min_cycle;Max_cycle;Signal;HPM_P1;HPM_P2
2021/12/13 00:01:04;;;;;;;33.25;11.55;;;;;;;;;;4790442;29;20050;-73
2021/12/13 00:03:41;;;;;;;25.05;11.38;;;;;;;;;;4790002;29;20073;-76
2021/12/13 00:06:07;;;;;;;;;;;;;;;;;;4791200;29;20472;-74
2021/12/13 00:08:35;;;;;;;30.45;11.63;;;;;;;;;;4789613;29;20358;-76
2021/12/13 00:11:08;;;;;;;28.65;10.77;;;;;;;;;;4788192;29;20073;-75
2021/12/13 00:13:46;;;;;;;29.70;12.00;;;;;;;;;;4791232;29;20073;-76
2021/12/13 00:16:13;;;;;;;35.28;13.45;;;;;;;;;;4790493;29;20480;-75
2021/12/13 00:18:44;;;;;;;24.88;12.40;;;;;;;;;;4790900;29;20046;-75
2021/12/13 00:21:13;;;;;;;35.50;13.35;;;;;;;;;;4806514;29;20103;-74
2021/12/13 00:23:45;;;;;;;29.15;14.18;;;;;;;;;;4783993;29;20051;-75
2021/12/13 00:26:11;;;;;;;39.90;15.27;;;;;;;;;;4805341;29;20480;-74
2021/12/13 00:28:41;;;;;;;33.58;14.00;;;;;;;;;;4790297;29;20115;-75
2021/12/13 00:31:12;;;;;;;47.92;14.90;;;;;;;;;;4804197;29;20050;-74
2021/12/13 00:33:43;;;;;;;29.10;13.75;;;;;;;;;;4789999;29;20062;-74
2021/12/13 00:36:17;;;;;;;48.90;15.88;;;;;;;;;;4806640;29;20227;-76
2021/12/13 00:38:51;;;;;;;41.03;15.40;;;;;;;;;;4806927;29;20054;-76
2021/12/13 00:41:21;;;;;;;45.65;15.35;;;;;;;;;;4790052;29;20047;-75
2021/12/13 00:43:59;;;;;;;42.45;16.70;;;;;;;;;;4805891;29;20061;-74
2021/12/13 00:46:28;;;;;;;45.05;16.33;;;;;;;;;;4806271;29;20066;-75
2021/12/13 00:48:55;;;;;;;41.65;15.38;;;;;;;;;;4790305;29;20055;-74
2021/12/13 00:51:26;;;;;;;31.85;15.27;;;;;;;;;;4806228;29;20043;-75
2021/12/13 00:53:54;;;;;;;41.13;16.65;;;;;;;;;;4804829;29;20062;-74
2021/12/13 00:56:38;;;;;;;40.90;16.35;;;;;;;;;;4789767;29;20062;-76
2021/12/13 00:59:05;;;;;;;45.75;16.13;;;;;;;;;;4796641;29;20111;-76
2021/12/13 01:01:31;;;;;;;41.08;16.73;;;;;;;;;;4805253;29;20103;-75
2021/12/13 01:03:57;;;;;;;44.13;16.05;;;;;;;;;;4805960;29;20383;-74
2021/12/13 01:06:42;;;;;;;41.10;15.80;;;;;;;;;;4781646;29;20059;-75
2021/12/13 01:09:27;;;;;;;49.83;15.77;;;;;;;;;;4802388;29;20497;-75
2021/12/13 01:12:01;;;;;;;37.63;16.42;;;;;;;;;;4803346;29;20090;-75
2021/12/13 01:14:36;;;;;;;39.33;15.20;;;;;;;;;;4803452;29;20055;-75
2021/12/13 01:17:28;;;;;;;41.25;16.30;;;;;;;;;;4809630;29;20062;-75
2021/12/13 01:20:08;;;;;;;37.83;15.50;;;;;;;;;;4786466;29;20070;-74
2021/12/13 01:25:22;;;;;;;37.85;14.73;;;;;;;;;;4792833;29;20111;-75
2021/12/13 01:27:50;;;;;;;35.95;13.52;;;;;;;;;;4794168;29;20069;-75
2021/12/13 01:30:19;;;;;;;32.85;14.77;;;;;;;;;;4807153;29;20055;-76
2021/12/13 01:32:47;;;;;;;38.28;16.55;;;;;;;;;;4789756;29;20051;-74
2021/12/13 01:35:20;;;;;;;30.58;13.52;;;;;;;;;;4783062;29;20051;-76
2021/12/13 01:37:53;;;;;;;34.63;15.43;;;;;;;;;;4778310;29;20108;-75
2021/12/13 01:40:20;;;;;;;35.03;15.45;;;;;;;;;;4786463;30;20376;-76
2021/12/13 01:42:53;;;;;;;33.38;15.00;;;;;;;;;;4791265;29;21573;-74
2021/12/13 01:45:19;;;;;;;33.90;15.45;;;;;;;;;;4809458;29;20059;-75
2021/12/13 01:47:46;;;;;;;41.60;16.10;;;;;;;;;;4809539;29;20059;-73
2021/12/13 01:50:14;;;;;;;40.40;16.77;;;;;;;;;;4808225;29;20066;-75
2021/12/13 01:52:41;;;;;;;45.58;16.95;;;;;;;;;;4772575;29;20043;-74
2021/12/13 01:55:21;;;;;;;31.52;14.55;;;;;;;;;;4808987;29;20094;-75
2021/12/13 01:57:55;;;;;;;34.58;15.95;;;;;;;;;;4807895;29;20508;-74
2021/12/13 02:00:31;;;;;;;31.90;15.00;;;;;;;;;;4792123;29;20059;-76
2021/12/13 02:02:57;;;;;;;;;;;;;;;;;;4808340;29;20066;-75
2021/12/13 02:05:27;;;;;;;32.33;15.18;;;;;;;;;;4805693;29;20303;-74
2021/12/13 02:07:57;;;;;;;29.40;15.57;;;;;;;;;;4788911;29;20120;-74
2021/12/13 02:10:34;;;;;;;38.45;15.48;;;;;;;;;;4808842;29;20062;-76
2021/12/13 02:13:03;;;;;;;36.60;15.57;;;;;;;;;;4806710;29;20115;-76
2021/12/13 02:18:19;;;;;;;38.10;16.50;;;;;;;;;;4806532;29;20062;-74
2021/12/13 02:20:49;;;;;;;37.75;16.63;;;;;;;;;;4808407;29;20058;-76
2021/12/13 02:23:15;;;;;;;40.63;16.50;;;;;;;;;;4790752;29;20191;-75
2021/12/13 02:25:43;;;;;;;37.08;16.23;;;;;;;;;;4805394;29;20055;-74
2021/12/13 02:28:12;;;;;;;42.42;16.27;;;;;;;;;;4782272;29;20046;-75
2021/12/13 02:30:41;;;;;;;38.25;17.60;;;;;;;;;;4781105;29;20130;-73
2021/12/13 02:33:08;;;;;;;47.50;17.20;;;;;;;;;;4806432;29;20058;-74
2021/12/13 02:35:37;;;;;;;43.90;18.05;;;;;;;;;;4808161;29;20494;-76
2021/12/13 02:38:05;;;;;;;43.08;17.60;;;;;;;;;;4792067;29;20486;-75
2021/12/13 02:40:31;;;;;;;43.30;16.33;;;;;;;;;;4806833;29;20059;-74
2021/12/13 02:42:57;;;;;;;35.28;14.98;;;;;;;;;;4805140;29;20395;-74
2021/12/13 02:45:28;;;;;;;38.35;16.73;;;;;;;;;;4791308;29;20051;-74
2021/12/13 02:47:59;;;;;;;45.03;16.50;;;;;;;;;;4807877;29;20340;-75
2021/12/13 02:50:33;;;;;;;36.28;14.98;;;;;;;;;;4807118;29;20430;-74
2021/12/13 02:52:59;;;;;;;34.33;14.85;;;;;;;;;;4789941;29;20309;-74
2021/12/13 02:55:28;;;;;;;32.78;14.25;;;;;;;;;;4805743;29;20047;-74
2021/12/13 02:57:55;;;;;;;39.72;15.95;;;;;;;;;;4808386;29;20066;-74
2021/12/13 03:00:25;;;;;;;40.83;16.40;;;;;;;;;;4807333;29;20109;-74
2021/12/13 03:02:52;;;;;;;33.08;14.18;;;;;;;;;;4805469;29;20104;-73
2021/12/13 03:05:22;;;;;;;48.60;15.77;;;;;;;;;;4792984;29;20047;-75
2021/12/13 03:07:51;;;;;;;29.20;13.82;;;;;;;;;;4807265;29;20146;-76
2021/12/13 03:10:21;;;;;;;33.80;14.30;;;;;;;;;;4807038;29;20067;-74
2021/12/13 03:12:47;;;;;;;36.58;14.05;;;;;;;;;;4789214;29;20167;-74
2021/12/13 03:15:15;;;;;;;35.80;13.43;;;;;;;;;;4775669;29;20059;-75
2021/12/13 03:17:44;;;;;;;35.42;12.95;;;;;;;;;;4789955;30;20112;-74
2021/12/13 03:20:11;;;;;;;30.92;11.77;;;;;;;;;;4780837;29;20380;-75
2021/12/13 03:22:55;;;;;;;27.08;12.18;;;;;;;;;;4806459;29;20544;-74
2021/12/13 03:25:33;;;;;;;26.67;11.65;;;;;;;;;;4805698;29;20120;-74
2021/12/13 03:28:18;;;;;;;27.63;10.57;;;;;;;;;;4785952;29;20058;-74
2021/12/13 03:30:59;;;;;;;26.40;11.25;;;;;;;;;;4805422;29;20456;-74
2021/12/13 03:33:45;;;;;;;27.80;10.95;;;;;;;;;;4805245;29;20047;-74
2021/12/13 03:36:14;;;;;;;25.88;10.18;;;;;;;;;;4797692;29;20063;-74
2021/12/13 03:38:44;;;;;;;26.52;10.00;;;;;;;;;;4787021;29;20123;-75
2021/12/13 03:41:14;;;;;;;28.42;9.93;;;;;;;;;;4799640;29;20115;-73
2021/12/13 03:43:42;;;;;;;23.40;9.18;;;;;;;;;;4806997;29;20047;-74
2021/12/13 03:46:09;;;;;;;24.92;9.18;;;;;;;;;;4775967;29;20082;-75
2021/12/13 03:48:36;;;;;;;20.98;8.85;;;;;;;;;;4807502;29;20051;-74
2021/12/13 03:51:05;;;;;;;22.75;9.00;;;;;;;;;;4805579;29;20051;-74
2021/12/13 03:53:32;;;;;;;26.00;9.93;;;;;;;;;;4790116;29;20365;-74
2021/12/13 03:56:05;;;;;;;26.83;8.73;;;;;;;;;;4787518;29;20433;-75
2021/12/13 03:58:35;;;;;;;23.58;9.35;;;;;;;;;;4781093;29;20050;-73
2021/12/13 04:01:21;;;;;;;27.17;9.73;;;;;;;;;;4785959;29;20059;-75
2021/12/13 04:03:48;;;;;;;19.90;9.20;;;;;;;;;;4795835;29;20093;-75
2021/12/13 04:06:15;;;;;;;25.10;8.82;;;;;;;;;;4805356;29;20059;-74
2021/12/13 04:08:43;;;;;;;27.00;9.27;;;;;;;;;;4785120;29;20077;-75
2021/12/13 04:11:10;;;;;;;22.10;9.00;;;;;;;;;;4789965;29;20054;-75
2021/12/13 04:13:47;;;;;;;25.50;8.98;;;;;;;;;;4805363;29;20067;-75
2021/12/13 04:16:30;;;;;;;22.92;10.02;;;;;;;;;;4789508;29;20466;-75
2021/12/13 04:19:11;;;;;;;25.70;10.30;;;;;;;;;;4805868;29;20073;-75
2021/12/13 04:21:49;;;;;;;19.75;9.68;;;;;;;;;;4805683;29;20449;-76
2021/12/13 04:24:29;;;;;;;22.65;9.35;;;;;;;;;;4791149;29;20456;-73
2021/12/13 04:26:58;;;;;;;21.35;10.68;;;;;;;;;;4785892;29;20468;-76
2021/12/13 04:29:28;;;;;;;22.48;10.55;;;;;;;;;;4806020;29;20071;-75
2021/12/13 04:31:54;;;;;;;20.45;10.00;;;;;;;;;;4787737;29;20082;-74
2021/12/13 04:34:22;;;;;;;23.92;10.82;;;;;;;;;;4804998;29;20062;-75
2021/12/13 04:36:49;;;;;;;23.92;10.50;;;;;;;;;;4789059;29;20424;-74
2021/12/13 04:39:21;;;;;;;20.13;9.35;;;;;;;;;;4788181;29;20054;-74
2021/12/13 04:41:50;;;;;;;17.65;9.25;;;;;;;;;;4784904;29;20480;-75
2021/12/13 04:44:39;;;;;;;16.27;8.90;;;;;;;;;;4788586;29;20197;-76
2021/12/13 04:47:08;;;;;;;17.52;7.90;;;;;;;;;;4801560;29;20058;-75
2021/12/13 04:49:35;;;;;;;18.25;7.78;;;;;;;;;;4806718;29;20119;-76
2021/12/13 04:52:04;;;;;;;15.10;7.03;;;;;;;;;;4788586;29;20058;-75
2021/12/13 04:54:32;;;;;;;14.10;6.63;;;;;;;;;;4791945;29;20077;-74
2021/12/13 04:56:59;;;;;;;14.25;6.85;;;;;;;;;;4792582;29;20070;-73
2021/12/13 04:59:26;;;;;;;11.98;6.57;;;;;;;;;;4780558;29;20100;-75
2021/12/13 05:01:54;;;;;;;14.13;6.13;;;;;;;;;;4808119;29;20136;-73
2021/12/13 05:04:21;;;;;;;13.98;5.95;;;;;;;;;;4793580;29;20115;-73
2021/12/13 05:06:49;;;;;;;14.50;6.20;;;;;;;;;;4805829;29;20057;-73
2021/12/13 05:09:16;;;;;;;14.20;6.20;;;;;;;;;;4790944;29;20368;-74
2021/12/13 05:11:53;;;;;;;8.30;5.47;;;;;;;;;;4791314;29;20460;-74
2021/12/13 05:14:33;;;;;;;12.40;5.47;;;;;;;;;;4807777;29;20142;-75
2021/12/13 05:17:00;;;;;;;10.15;5.63;;;;;;;;;;4780220;30;20058;-75
2021/12/13 05:19:29;;;;;;;11.07;5.88;;;;;;;;;;4776374;29;20468;-74
2021/12/13 05:21:56;;;;;;;11.48;5.53;;;;;;;;;;4796985;29;20119;-74
2021/12/13 05:24:24;;;;;;;12.98;5.38;;;;;;;;;;4792107;29;20058;-74
2021/12/13 05:26:52;;;;;;;11.68;6.00;;;;;;;;;;4792754;29;20069;-74
2021/12/13 05:29:23;;;;;;;11.40;5.93;;;;;;;;;;4806610;29;20066;-74
2021/12/13 05:31:51;;;;;;;12.15;6.63;;;;;;;;;;4806609;29;20077;-75
2021/12/13 05:34:18;;;;;;;11.73;7.00;;;;;;;;;;4807872;29;20533;-75
2021/12/13 05:36:53;;;;;;;12.88;7.38;;;;;;;;;;4776771;30;20070;-74
2021/12/13 05:39:20;;;;;;;10.82;6.50;;;;;;;;;;4799135;29;20046;-75
2021/12/13 05:42:01;;;;;;;11.43;6.90;;;;;;;;;;4808354;29;20306;-74
2021/12/13 05:44:32;;;;;;;14.07;7.32;;;;;;;;;;4777433;29;20058;-75
2021/12/13 05:46:59;;;;;;;12.60;6.90;;;;;;;;;;4791107;29;20065;-75
2021/12/13 05:49:31;;;;;;;11.48;7.63;;;;;;;;;;4792245;29;20062;-74
2021/12/13 05:52:07;;;;;;;12.55;8.27;;;;;;;;;;4804352;29;20054;-74
2021/12/13 05:54:35;;;;;;;13.38;8.32;;;;;;;;;;4789291;29;20059;-73
2021/12/13 05:57:07;;;;;;;12.95;8.50;;;;;;;;;;4803936;29;20123;-75
2021/12/13 05:59:52;;;;;;;16.15;8.38;;;;;;;;;;4776989;29;20062;-75
2021/12/13 06:02:36;;;;;;;13.45;8.38;;;;;;;;;;4788205;29;20090;-75
2021/12/13 06:05:02;;;;;;;12.48;8.25;;;;;;;;;;4785357;30;20048;-74
2021/12/13 06:07:32;;;;;;;13.60;9.23;;;;;;;;;;4753780;29;1085672;-75
2021/12/13 06:09:58;;;;;;;15.00;9.48;;;;;;;;;;4808206;29;20437;-74
2021/12/13 06:12:27;;;;;;;13.00;9.18;;;;;;;;;;4784665;29;20149;-74
2021/12/13 06:14:53;;;;;;;13.60;9.57;;;;;;;;;;4792851;29;20090;-74
2021/12/13 06:17:33;;;;;;;15.93;11.10;;;;;;;;;;4808582;29;20058;-74
2021/12/13 06:20:11;;;;;;;17.02;9.75;;;;;;;;;;4808643;29;20070;-75
2021/12/13 06:22:37;;;;;;;15.10;9.32;;;;;;;;;;4791369;29;20074;-75
2021/12/13 06:25:08;;;;;;;13.85;9.88;;;;;;;;;;4808293;29;20063;-74
2021/12/13 06:27:42;;;;;;;14.32;9.73;;;;;;;;;;4792212;29;20071;-75
2021/12/13 06:30:08;;;;;;;16.30;9.98;;;;;;;;;;4790960;29;20142;-75
2021/12/13 06:32:43;;;;;;;17.35;10.27;;;;;;;;;;4792564;29;20051;-74
2021/12/13 06:35:27;;;;;;;13.75;9.73;;;;;;;;;;4808253;29;20081;-73
2021/12/13 06:37:56;;;;;;;15.30;9.85;;;;;;;;;;4792876;29;20043;-82
2021/12/13 06:40:27;;;;;;;15.65;10.15;;;;;;;;;;4791529;29;20054;-73
2021/12/13 06:43:01;;;;;;;14.05;10.38;;;;;;;;;;4807530;29;20059;-74
2021/12/13 06:45:29;;;;;;;15.43;10.20;;;;;;;;;;4808141;29;20610;-74
2021/12/13 06:47:56;;;;;;;14.75;9.40;;;;;;;;;;4808448;29;20384;-74
2021/12/13 06:50:25;;;;;;;16.35;10.40;;;;;;;;;;4788155;29;20055;-75
2021/12/13 06:52:51;;;;;;;12.60;9.70;;;;;;;;;;4790284;29;20075;-75
2021/12/13 06:55:19;;;;;;;15.40;9.95;;;;;;;;;;4807463;29;20526;-74
2021/12/13 06:57:48;;;;;;;13.27;8.82;;;;;;;;;;4808447;29;20062;-73
2021/12/13 07:00:17;;;;;;;14.93;9.80;;;;;;;;;;4801078;29;20141;-76
2021/12/13 07:02:46;;;;;;;12.88;8.93;;;;;;;;;;4790398;29;20055;-74
2021/12/13 07:05:39;;;;;;;19.05;10.02;;;;;;;;;;4774688;30;20060;-73
2021/12/13 07:08:07;;;;;;;16.92;9.07;;;;;;;;;;4788863;29;20060;-75
2021/12/13 07:10:33;;;;;;;13.25;9.02;;;;;;;;;;4806425;29;20051;-73
2021/12/13 07:13:04;;;;;;;18.85;9.73;;;;;;;;;;4789272;29;20047;-75
2021/12/13 07:15:33;;;;;;;17.05;9.75;;;;;;;;;;4790172;29;20055;-75
2021/12/13 07:18:21;;;;;;;17.13;10.27;;;;;;;;;;4806957;29;20050;-74
2021/12/13 07:20:56;;;;;;;15.52;10.40;;;;;;;;;;4805953;29;20070;-75
2021/12/13 07:23:22;;;;;;;17.42;11.30;;;;;;;;;;4805470;29;20377;-76
2021/12/13 07:25:51;;;;;;;14.27;10.40;;;;;;;;;;4805782;29;20061;-74
2021/12/13 07:28:34;;;;;;;17.45;10.07;;;;;;;;;;4789054;29;20047;-74
2021/12/13 07:31:03;;;;;;;16.60;11.23;;;;;;;;;;4789941;29;20066;-74
2021/12/13 07:33:40;;;;;;;14.45;10.63;;;;;;;;;;4806387;29;20101;-74
2021/12/13 07:36:18;;;;;;;14.60;10.68;;;;;;;;;;4806297;29;20067;-74
2021/12/13 07:38:48;;;;;;;16.80;11.48;;;;;;;;;;4796486;29;20134;-74
2021/12/13 07:41:14;;;;;;;17.08;11.88;;;;;;;;;;4805482;29;20468;-75
2021/12/13 07:43:43;;;;;;;17.95;12.00;;;;;;;;;;4790531;29;20460;-76
2021/12/13 07:46:19;;;;;;;15.93;12.48;;;;;;;;;;4805452;29;20074;-75
2021/12/13 07:48:45;;;;;;;18.50;11.90;;;;;;;;;;4790904;29;20059;-75
2021/12/13 07:51:11;;;;;;;18.23;11.77;;;;;;;;;;4803213;29;20054;-75
2021/12/13 07:54:02;;;;;;;16.58;11.88;;;;;;;;;;4807701;29;20194;-75
2021/12/13 07:56:37;;;;;;;18.92;12.52;;;;;;;;;;4783108;29;20158;-76
2021/12/13 07:59:03;;;;;;;17.75;12.60;;;;;;;;;;4790871;29;20054;-76
2021/12/13 08:01:31;;;;;;;17.98;11.93;;;;;;;;;;4774093;29;20059;-75
2021/12/13 08:03:59;;;;;;;19.08;13.45;;;;;;;;;;4785734;29;20069;-73
2021/12/13 08:06:27;;;;;;;19.35;13.82;;;;;;;;;;4788503;29;20482;-76
2021/12/13 08:08:57;;;;;;;18.88;13.10;;;;;;;;;;4790785;29;20070;-75
2021/12/13 08:11:38;;;;;;;19.83;13.02;;;;;;;;;;4790049;29;20081;-76
2021/12/13 08:14:05;;;;;;;18.38;13.15;;;;;;;;;;4804091;29;20054;-77
2021/12/13 08:16:33;;;;;;;18.67;12.70;;;;;;;;;;4785167;29;20059;-76
2021/12/13 08:19:04;;;;;;;16.85;13.05;;;;;;;;;;4773014;30;20116;-73
2021/12/13 08:21:30;;;;;;;15.30;12.50;;;;;;;;;;4775447;29;20085;-75
2021/12/13 08:23:59;;;;;;;17.67;12.85;;;;;;;;;;4775411;29;20058;-75
2021/12/13 08:26:27;;;;;;;20.48;13.80;;;;;;;;;;4805667;29;20042;-74
2021/12/13 08:28:55;;;;;;;20.55;13.65;;;;;;;;;;4806391;29;20388;-77
2021/12/13 08:31:27;;;;;;;17.88;13.80;;;;;;;;;;4788274;29;20047;-76
2021/12/13 08:34:13;;;;;;;18.90;13.18;;;;;;;;;;4805173;29;20058;-75
2021/12/13 08:36:41;;;;;;;18.67;13.05;;;;;;;;;;4773181;29;20181;-75
2021/12/13 08:39:18;;;;;;;16.95;13.15;;;;;;;;;;4787772;29;20063;-74
2021/12/13 08:41:46;;;;;;;17.13;12.32;;;;;;;;;;4808014;29;20493;-77
2021/12/13 08:44:12;;;;;;;18.50;13.40;;;;;;;;;;4788130;29;20487;-74
2021/12/13 08:46:56;;;;;;;18.27;13.52;;;;;;;;;;4804372;29;20130;-76
2021/12/13 08:49:22;;;;;;;16.88;13.38;;;;;;;;;;4790077;29;20133;-75
2021/12/13 08:51:52;;;;;;;16.50;12.93;;;;;;;;;;4790892;29;20047;-74
2021/12/13 08:54:18;;;;;;;18.58;12.98;;;;;;;;;;4806328;29;20358;-74
2021/12/13 08:56:46;;;;;;;18.30;13.27;;;;;;;;;;4806404;29;20125;-75
2021/12/13 08:59:23;;;;;;;17.50;13.43;;;;;;;;;;4806018;29;20452;-74
2021/12/13 09:01:54;;;;;;;19.10;13.15;;;;;;;;;;4817777;29;22011;-76
2021/12/13 09:04:24;;;;;;;16.42;12.60;;;;;;;;;;4789672;29;20042;-75
2021/12/13 09:06:52;;;;;;;17.35;12.18;;;;;;;;;;4805536;29;20364;-75
2021/12/13 09:09:18;;;;;;;17.27;12.30;;;;;;;;;;4789072;29;20066;-76
2021/12/13 09:11:55;;;;;;;16.58;12.32;;;;;;;;;;4806703;29;20066;-75
2021/12/13 09:14:24;;;;;;;16.90;11.88;;;;;;;;;;4806057;29;20043;-76
2021/12/13 09:17:07;;;;;;;16.83;12.57;;;;;;;;;;4806401;29;20139;-75
2021/12/13 09:19:47;;;;;;;17.73;12.02;;;;;;;;;;4790329;29;20396;-75
2021/12/13 09:22:13;;;;;;;16.73;12.05;;;;;;;;;;4790734;29;20047;-75
2021/12/13 09:24:43;;;;;;;16.45;11.57;;;;;;;;;;4789257;29;20443;-75
2021/12/13 09:27:13;;;;;;;14.23;11.57;;;;;;;;;;4789811;29;20054;-76
2021/12/13 09:29:46;;;;;;;15.48;11.48;;;;;;;;;;4790758;29;20058;-76
2021/12/13 09:32:14;;;;;;;16.42;11.55;;;;;;;;;;4790382;29;20058;-76
2021/12/13 09:34:40;;;;;;;14.02;10.93;;;;;;;;;;4806809;29;20073;-76
2021/12/13 09:37:06;;;;;;;17.10;10.93;;;;;;;;;;4792588;29;20051;-75
2021/12/13 09:39:33;;;;;;;13.82;10.75;;;;;;;;;;4779177;29;20058;-75
2021/12/13 09:42:07;;;;;;;13.93;10.60;;;;;;;;;;4793832;29;20051;-75
2021/12/13 09:44:39;;;;;;;15.02;10.90;;;;;;;;;;4778635;29;20061;-75
2021/12/13 09:47:11;;;;;;;15.52;10.55;;;;;;;;;;4792041;29;20055;-75
2021/12/13 09:49:37;;;;;;;15.10;10.80;;;;;;;;;;4792044;29;20047;-74
2021/12/13 09:52:15;;;;;;;15.32;11.45;;;;;;;;;;4807599;29;20050;-75
2021/12/13 09:54:44;;;;;;;14.35;11.68;;;;;;;;;;4790786;29;20375;-75
2021/12/13 09:57:12;;;;;;;16.40;10.60;;;;;;;;;;4778153;29;20094;-75
2021/12/13 09:59:40;;;;;;;14.95;11.65;;;;;;;;;;4810116;29;20077;-75
2021/12/13 10:02:11;;;;;;;16.70;11.15;;;;;;;;;;4779849;29;20471;-75
2021/12/13 10:04:41;;;;;;;13.65;10.38;;;;;;;;;;4793436;29;20054;-76
2021/12/13 10:07:10;;;;;;;14.63;10.93;;;;;;;;;;4793154;29;20099;-75
2021/12/13 10:09:40;;;;;;;14.35;10.40;;;;;;;;;;4795242;29;20146;-77
2021/12/13 10:12:13;;;;;;;15.43;11.07;;;;;;;;;;4811513;29;20115;-75
2021/12/13 10:14:45;;;;;;;15.70;10.82;;;;;;;;;;4814796;29;20134;-75
2021/12/13 10:17:12;;;;;;;14.05;10.93;;;;;;;;;;4775457;30;20465;-74
2021/12/13 10:19:41;;;;;;;12.48;10.27;;;;;;;;;;4763082;29;20467;-75
2021/12/13 10:22:08;;;;;;;14.88;9.98;;;;;;;;;;4808708;29;20047;-75
2021/12/13 10:24:37;;;;;;;13.25;9.95;;;;;;;;;;4792760;29;20054;-74
2021/12/13 10:27:04;;;;;;;17.15;10.48;;;;;;;;;;4808713;29;20069;-75
2021/12/13 10:29:30;;;;;;;16.85;10.23;;;;;;;;;;4808987;29;20047;-74
2021/12/13 10:32:00;;;;;;;12.38;10.15;;;;;;;;;;4792483;29;20054;-74
2021/12/13 10:34:31;;;;;;;13.05;9.90;;;;;;;;;;4791664;29;20088;-74
2021/12/13 10:37:02;;;;;;;18.42;10.00;;;;;;;;;;4808496;29;20059;-75
2021/12/13 10:39:30;;;;;;;14.52;10.00;;;;;;;;;;4808393;29;20059;-75
2021/12/13 10:41:58;;;;;;;13.80;9.75;;;;;;;;;;4792983;29;20133;-76
2021/12/13 10:44:29;;;;;;;15.30;10.40;;;;;;;;;;4793161;29;20054;-74
2021/12/13 10:47:05;;;;;;;11.68;9.63;;;;;;;;;;4791992;29;20117;-73
2021/12/13 10:49:32;;;;;;;13.70;9.27;;;;;;;;;;4807640;29;20118;-76
2021/12/13 10:52:01;;;;;;;17.30;9.98;;;;;;;;;;4771707;30;20051;-75
2021/12/13 10:54:33;;;;;;;14.20;9.65;;;;;;;;;;4797601;29;20409;-75
2021/12/13 10:57:04;;;;;;;14.60;9.43;;;;;;;;;;4806697;29;20070;-75
2021/12/13 10:59:31;;;;;;;13.18;9.40;;;;;;;;;;4804848;29;20059;-75
2021/12/13 11:01:59;;;;;;;13.30;9.90;;;;;;;;;;4804263;29;20093;-75
2021/12/13 11:04:28;;;;;;;13.02;9.80;;;;;;;;;;4804438;29;20536;-75
2021/12/13 11:06:54;;;;;;;13.45;9.85;;;;;;;;;;4806446;29;20051;-73
2021/12/13 11:09:22;;;;;;;11.57;9.18;;;;;;;;;;4808639;29;20059;-74
2021/12/13 11:11:55;;;;;;;13.48;10.05;;;;;;;;;;4792088;29;20089;-73
2021/12/13 11:14:22;;;;;;;13.02;9.82;;;;;;;;;;4792054;29;20051;-75
2021/12/13 11:17:00;;;;;;;11.18;9.52;;;;;;;;;;4776888;29;20051;-74
2021/12/13 11:19:28;;;;;;;13.70;9.10;;;;;;;;;;4807721;29;20058;-75
2021/12/13 11:22:01;;;;;;;16.10;11.05;;;;;;;;;;4806492;29;20112;-75
2021/12/13 11:24:29;;;;;;;14.68;10.30;;;;;;;;;;4791698;29;20051;-75
2021/12/13 11:26:57;;;;;;;14.93;10.20;;;;;;;;;;4807206;29;20061;-75
2021/12/13 11:29:24;;;;;;;15.60;10.32;;;;;;;;;;4792053;29;20070;-75
2021/12/13 11:31:52;;;;;;;15.57;9.75;;;;;;;;;;4807696;29;20434;-75
2021/12/13 11:34:37;;;;;;;15.35;9.98;;;;;;;;;;4807664;29;20131;-74
2021/12/13 11:37:12;;;;;;;14.10;10.05;;;;;;;;;;4791356;29;20054;-75
2021/12/13 11:39:46;;;;;;;14.97;10.17;;;;;;;;;;4791616;29;20070;-76
2021/12/13 11:42:22;;;;;;;17.10;10.35;;;;;;;;;;4791646;29;20077;-76
2021/12/13 11:45:23;;;;;;;13.05;10.20;;;;;;;;;;4807761;29;20043;-76
2021/12/13 11:48:10;;;;;;;14.75;10.55;;;;;;;;;;4766118;30;20118;-76
2021/12/13 11:50:59;;;;;;;14.57;10.55;;;;;;;;;;4788343;29;20137;-72
2021/12/13 11:53:44;;;;;;;16.45;9.85;;;;;;;;;;4793768;29;20466;-75
2021/12/13 11:56:28;;;;;;;13.57;9.07;;;;;;;;;;4806912;29;20046;-75
2021/12/13 11:59:11;;;;;;;15.00;9.95;;;;;;;;;;4806281;29;20483;-76
2021/12/13 12:01:43;;;;;;;13.88;10.00;;;;;;;;;;4807076;29;20055;-75
2021/12/13 12:04:28;;;;;;;16.73;9.65;;;;;;;;;;4803563;29;20046;-75
2021/12/13 12:07:23;;;;;;;15.77;9.82;;;;;;;;;;4780978;29;20089;-74
2021/12/13 12:10:07;;;;;;;14.88;9.98;;;;;;;;;;4743025;29;20134;-75
2021/12/13 12:12:52;;;;;;;19.00;9.90;;;;;;;;;;4791341;29;20365;-74
2021/12/13 12:15:20;;;;;;;18.00;9.18;;;;;;;;;;4807303;29;20073;-76
2021/12/13 12:17:50;;;;;;;13.52;9.38;;;;;;;;;;4789053;29;20356;-85
2021/12/13 12:20:18;;;;;;;15.00;9.23;;;;;;;;;;4789490;29;20122;-74
2021/12/13 12:22:49;;;;;;;17.50;9.57;;;;;;;;;;4791302;29;20054;-74
2021/12/13 12:25:15;;;;;;;13.15;8.55;;;;;;;;;;4807156;29;20464;-75
2021/12/13 12:27:42;;;;;;;12.95;9.07;;;;;;;;;;4806809;29;20055;-74
2021/12/13 12:30:10;;;;;;;15.60;8.90;;;;;;;;;;4807216;29;20161;-74
2021/12/13 12:32:38;;;;;;;12.95;7.90;;;;;;;;;;4806408;29;20111;-75
2021/12/13 12:35:11;;;;;;;13.70;8.70;;;;;;;;;;4806658;29;20054;-76
2021/12/13 12:37:56;;;;;;;12.85;7.97;;;;;;;;;;4807061;29;20063;-74
2021/12/13 12:40:22;;;;;;;11.98;8.07;;;;;;;;;;4790829;29;20058;-75
2021/12/13 12:42:50;;;;;;;12.60;7.60;;;;;;;;;;4772833;30;20047;-75
2021/12/13 12:45:24;;;;;;;12.75;8.02;;;;;;;;;;4788678;30;20043;-74
2021/12/13 12:47:50;;;;;;;10.60;7.63;;;;;;;;;;4773246;30;20062;-74
2021/12/13 12:50:22;;;;;;;12.80;7.78;;;;;;;;;;4785189;29;20055;-75
2021/12/13 12:52:55;;;;;;;17.63;8.52;;;;;;;;;;4806618;29;20069;-75
2021/12/13 12:55:24;;;;;;;12.43;7.80;;;;;;;;;;4806359;29;20130;-74
2021/12/13 12:57:50;;;;;;;12.88;7.68;;;;;;;;;;4791071;29;20059;-75
2021/12/13 13:00:21;;;;;;;14.93;8.32;;;;;;;;;;4791156;29;20058;-76
2021/12/13 13:02:49;;;;;;;17.60;8.93;;;;;;;;;;4806011;29;20472;-75
2021/12/13 13:05:18;;;;;;;17.58;8.68;;;;;;;;;;4806577;29;20111;-75
2021/12/13 13:07:44;;;;;;;14.27;9.13;;;;;;;;;;4806566;29;20067;-74
2021/12/13 13:10:23;;;;;;;11.85;9.27;;;;;;;;;;4800338;29;20102;-77
2021/12/13 13:12:50;;;;;;;14.57;9.80;;;;;;;;;;4794028;29;20051;-75
2021/12/13 13:15:19;;;;;;;18.05;9.50;;;;;;;;;;4809865;29;20380;-75
2021/12/13 13:17:47;;;;;;;17.83;10.07;;;;;;;;;;4794185;29;20051;-74
2021/12/13 13:20:18;;;;;;;14.73;10.52;;;;;;;;;;4808802;29;20058;-76
2021/12/13 13:22:45;;;;;;;16.45;10.63;;;;;;;;;;4810139;29;20119;-76
2021/12/13 13:25:18;;;;;;;15.18;10.27;;;;;;;;;;4795040;29;20371;-76
2021/12/13 13:27:44;;;;;;;17.83;11.13;;;;;;;;;;4811846;29;20050;-76
2021/12/13 13:30:14;;;;;;;17.42;10.57;;;;;;;;;;4823066;29;20456;-77
2021/12/13 13:32:40;;;;;;;18.08;13.25;;;;;;;;;;4791307;29;20050;-75
2021/12/13 13:35:07;;;;;;;17.42;12.20;;;;;;;;;;4801314;29;20062;-75
2021/12/13 13:37:38;;;;;;;24.20;15.10;;;;;;;;;;4791700;30;20067;-74
2021/12/13 13:40:07;;;;;;;20.40;13.23;;;;;;;;;;4796636;29;20054;-74
2021/12/13 13:42:40;;;;;;;20.55;13.30;;;;;;;;;;4794608;29;20101;-75
2021/12/13 13:45:09;;;;;;;20.42;13.10;;;;;;;;;;4809319;29;20047;-76
2021/12/13 13:47:38;;;;;;;18.48;12.38;;;;;;;;;;4793253;29;20050;-76
2021/12/13 13:50:19;;;;;;;18.17;13.13;;;;;;;;;;4810005;29;20054;-76
2021/12/13 13:52:46;;;;;;;19.90;12.65;;;;;;;;;;4809129;29;20479;-76
2021/12/13 13:55:22;;;;;;;16.63;12.40;;;;;;;;;;4793057;29;20051;-74
2021/12/13 13:57:54;;;;;;;18.02;13.00;;;;;;;;;;4809097;29;20077;-74
2021/12/13 14:00:21;;;;;;;19.65;13.25;;;;;;;;;;4809518;29;20054;-76
2021/12/13 14:02:48;;;;;;;21.35;13.38;;;;;;;;;;4809439;29;20059;-76
2021/12/13 14:05:15;;;;;;;21.90;12.98;;;;;;;;;;4809126;29;20105;-75
2021/12/13 14:07:42;;;;;;;18.23;12.43;;;;;;;;;;4777679;29;20063;-76
2021/12/13 14:10:13;;;;;;;19.30;12.93;;;;;;;;;;4808612;29;20124;-76
2021/12/13 14:12:42;;;;;;;18.17;12.23;;;;;;;;;;4792160;29;20065;-76
2021/12/13 14:15:08;;;;;;;20.80;13.82;;;;;;;;;;4808558;29;20120;-75
2021/12/13 14:17:34;;;;;;;21.00;13.00;;;;;;;;;;4809148;29;20055;-75
2021/12/13 14:20:04;;;;;;;21.40;13.27;;;;;;;;;;4792173;29;20130;-83
2021/12/13 14:22:32;;;;;;;19.63;12.90;;;;;;;;;;4790855;29;20055;-75
2021/12/13 14:24:59;;;;;;;21.00;12.77;;;;;;;;;;4790998;29;20384;-75
2021/12/13 14:27:30;;;;;;;21.60;13.23;;;;;;;;;;4809103;29;20058;-76
2021/12/13 14:30:11;;;;;;;22.92;13.48;;;;;;;;;;4792950;29;20062;-75
2021/12/13 14:32:37;;;;;;;20.10;13.00;;;;;;;;;;4803165;29;20369;-76
2021/12/13 14:35:21;;;;;;;20.15;12.73;;;;;;;;;;4779237;29;20055;-76
2021/12/13 14:37:48;;;;;;;19.42;13.10;;;;;;;;;;4775024;30;20055;-75
2021/12/13 14:40:15;;;;;;;20.20;12.45;;;;;;;;;;4784049;29;20372;-76
2021/12/13 14:42:42;;;;;;;27.27;12.88;;;;;;;;;;4791236;29;20059;-75
2021/12/13 14:45:10;;;;;;;21.55;11.88;;;;;;;;;;4792881;29;20050;-76
2021/12/13 14:47:39;;;;;;;18.27;11.80;;;;;;;;;;4791604;29;20126;-81
2021/12/13 14:50:12;;;;;;;17.83;11.35;;;;;;;;;;4790081;29;20151;-77